Latest Weather Observations for Ballarat

IDV60801

Issued at 6:02 am EDT Sunday 1 February 2015 (issued every 30 minutes, with the page automatically refreshed every 10 minutes)

About weather observations | Map of weather stations | Latest weather observations for VIC | Other Formats
Station Details ID: 089002 Name: BALLARAT AERODROME Lat: -37.51 Lon: 143.79 Height: 435.2 m
Data from the previous 72 hours. | See also: Recent months at Ballarat
Date/Time
EDT
Temp
°C
App
Temp
°C
Dew
Point
Rel
Hum
%
Delta-T
°C
Wind Press
QNH
hPa
Press
MSL
hPa
Rain
since 9 am
mm
Dir
 
Spd
km/h
Gust
km/h
Spd
kts
Gust
kts
01/05:30am 10.9 6.6 7.2 78 1.8 SSW 19 28 10 15 1012.7 1011.4 0.0
01/05:00am 10.8 6.6 7.5 80 1.6 SSW 19 26 10 14 1012.8 1011.5 0.0
01/04:30am 10.8 6.2 8.0 83 1.4 S 22 33 12 18 1012.8 1011.5 0.0
01/04:00am 10.9 6.6 8.0 82 1.4 SSW 20 32 11 17 1012.8 1011.5 0.0
01/03:30am 10.9 6.3 8.0 82 1.4 SSW 22 35 12 19 1012.9 1011.6 0.0
01/03:00am 11.0 6.7 7.9 81 1.5 S 20 28 11 15 1013.0 1011.7 0.0
01/02:30am 11.1 6.8 7.8 80 1.6 SSW 20 26 11 14 1013.4 1012.0 0.0
01/02:00am 11.1 6.7 7.6 79 1.7 SSW 20 28 11 15 1013.5 1012.1 0.0
01/01:30am 11.1 7.0 7.8 80 1.6 SSW 19 26 10 14 1013.7 1012.3 0.0
01/01:00am 11.0 7.2 8.9 87 1.1 SSW 19 26 10 14 1013.8 1012.4 0.0
01/12:30am 11.0 7.3 10.2 95 0.4 SSW 20 32 11 17 1014.0 1012.6 0.0
01/12:00am 11.0 7.6 10.7 98 0.2 SSW 19 30 10 16 1014.2 1012.9 0.0
 
Date/Time
EDT
Temp
°C
App
Temp
°C
Dew
Point
Rel
Hum
%
Delta-T
°C
Wind Press
QNH
hPa
Press
MSL
hPa
Rain
since 9 am
mm
Dir
 
Spd
km/h
Gust
km/h
Spd
kts
Gust
kts
31/11:30pm 10.9 7.3 10.7 99 0.1 S 20 28 11 15 1014.2 1012.9 0.0
31/11:00pm 10.9 7.5 10.7 99 0.1 S 19 26 10 14 1014.5 1013.2 0.0
31/10:30pm 11.1 7.8 10.8 98 0.2 S 19 26 10 14 1014.7 1013.4 0.0
31/10:00pm 11.9 8.0 9.6 86 1.2 S 20 30 11 16 1014.5 1013.2 0.0
31/09:30pm 12.0 8.2 9.7 86 1.2 S 20 30 11 16 1014.2 1012.9 0.0
31/09:24pm 12.1 8.3 9.8 86 1.2 S 20 28 11 15 1014.2 1012.9 0.0
31/09:00pm 12.6 8.7 9.6 82 1.6 S 20 32 11 17 1014.1 1012.8 0.0
31/08:30pm 13.2 8.0 8.9 75 2.2 S 26 35 14 19 1013.8 1012.4 0.0
31/08:00pm 13.8 8.9 8.4 70 2.8 S 24 35 13 19 1013.7 1012.3 0.0
31/07:30pm 14.4 7.7 7.5 63 3.5 S 32 43 17 23 1013.4 1012.0 0.0
31/07:00pm 15.2 9.8 6.5 56 4.3 SSW 24 37 13 20 1013.0 1011.7 0.0
31/06:30pm 16.8 10.6 6.3 50 5.3 SSW 28 35 15 19 1012.7 1011.4 0.0
31/06:00pm 17.9 12.0 5.8 45 6.0 SSW 26 35 14 19 1012.5 1011.2 0.0
31/05:30pm 18.6 13.1 6.1 44 6.3 SSW 24 33 13 18 1012.5 1011.2 0.0
31/05:00pm 18.0 12.3 4.9 42 6.4 SSW 24 39 13 21 1012.6 1011.3 0.0
31/04:30pm 18.6 13.3 5.1 41 6.7 SSW 22 35 12 19 1012.7 1011.4 0.0
31/04:00pm 19.0 13.4 5.5 41 6.8 SSW 24 35 13 19 1012.5 1011.2 0.0
31/03:30pm 19.4 14.0 6.2 42 6.7 S 24 35 13 19 1012.7 1011.4 0.0
31/03:00pm 18.5 13.1 6.4 45 6.1 SSW 24 35 13 19 1012.6 1011.3 0.0
31/02:30pm 18.5 12.9 7.0 47 5.9 S 26 33 14 18 1012.8 1011.5 0.0
31/02:00pm 17.9 12.6 6.7 48 5.7 S 24 41 13 22 1013.1 1011.8 0.0
31/01:30pm 18.6 13.7 7.1 47 5.9 S 22 33 12 18 1013.4 1012.0 0.0
31/01:00pm 16.7 11.7 6.5 51 5.1 S 22 32 12 17 1013.4 1012.0 0.0
31/12:30pm 16.1 11.6 7.1 55 4.6 SSW 20 32 11 17 1013.5 1012.1 0.0
31/12:00pm 16.5 11.9 8.0 57 4.4 S 22 33 12 18 1013.5 1012.2 0.0
31/11:30am 15.3 10.9 7.6 60 3.9 S 20 32 11 17 1013.7 1012.3 0.0
31/11:00am 15.2 10.3 8.4 64 3.5 S 24 30 13 16 1013.4 1012.0 0.0
31/10:30am 14.9 9.6 8.4 65 3.4 S 26 35 14 19 1013.5 1012.1 0.0
31/10:00am 14.3 8.7 8.9 70 2.8 S 28 37 15 20 1013.4 1012.0 0.0
31/09:30am 15.0 9.7 10.0 72 2.7 S 28 39 15 21 1013.1 1011.8 0.0
31/09:06am 13.2 8.3 9.8 80 1.8 S 26 33 14 18 1013.0 1011.7 0.0
31/09:00am 13.0 7.7 9.8 81 1.7 S 28 37 15 20 1013.0 1011.7 0.0
31/08:30am 12.4 7.1 10.0 85 1.3 S 28 37 15 20 1012.8 1011.5 0.0
31/08:00am 12.2 7.2 10.8 91 0.7 S 28 37 15 20 1012.8 1011.5 0.0
31/07:30am 11.4 8.0 11.1 98 0.2 SSW 20 32 11 17 1012.7 1011.4 0.0
31/07:23am 11.3 8.4 11.0 98 0.2 SSW 17 30 9 16 1012.8 1011.5 0.0
31/07:18am 11.2 8.3 10.9 98 0.2 SSW 17 26 9 14 1012.7 1011.4 0.0
31/07:00am 11.1 8.1 10.8 98 0.2 SSW 17 24 9 13 1012.6 1011.3 0.0
31/06:30am 11.0 8.4 10.7 98 0.2 SSW 15 22 8 12 1012.8 1011.5 0.0
31/06:00am 11.1 8.1 10.8 98 0.2 SSW 17 24 9 13 1012.8 1011.5 0.0
31/05:30am 10.9 8.3 10.6 98 0.2 SSW 15 24 8 13 1012.3 1011.0 0.0
31/05:00am 10.4 7.7 10.2 99 0.1 S 15 19 8 10 1012.1 1010.8 0.0
31/04:47am 10.2 8.2 10.0 99 0.1 S 11 17 6 9 1012.3 1011.0 0.0
31/04:30am 9.9 7.4 9.8 99 0.1 S 13 17 7 9 1012.3 1011.0 0.0
31/04:00am 9.6 7.0 9.5 99 0.1 SSW 13 20 7 11 1012.4 1011.1 0.0
31/03:30am 9.5 6.5 9.4 99 0.1 SSW 15 20 8 11 1012.5 1011.2 0.0
31/03:00am 9.4 6.7 9.1 98 0.2 SSW 13 17 7 9 1012.5 1011.2 0.0
31/02:30am 9.6 6.8 8.7 94 0.5 SSW 13 17 7 9 1013.0 1011.7 0.0
31/02:00am 9.3 6.6 7.3 87 1.0 S 11 13 6 7 1013.3 1011.9 0.0
31/01:30am 10.3 7.4 8.1 86 1.1 S 13 17 7 9 1013.6 1012.2 0.0
31/01:00am 10.9 8.5 8.5 85 1.2 S 11 15 6 8 1013.8 1012.4 0.0
31/12:30am 11.7 8.5 8.6 81 1.6 S 15 20 8 11 1013.9 1012.5 0.0
31/12:00am 12.0 8.5 8.7 80 1.7 S 17 24 9 13 1014.0 1012.6 0.0
 
Date/Time
EDT
Temp
°C
App
Temp
°C
Dew
Point
Rel
Hum
%
Delta-T
°C
Wind Press
QNH
hPa
Press
MSL
hPa
Rain
since 9 am
mm
Dir
 
Spd
km/h
Gust
km/h
Spd
kts
Gust
kts
30/11:30pm 11.7 7.6 8.0 78 1.9 SSE 19 26 10 14 1013.9 1012.5 0.0
30/11:00pm 11.6 7.2 7.5 76 2.0 SSE 20 28 11 15 1014.1 1012.8 0.0
30/10:30pm 11.7 7.3 7.2 74 2.2 SSE 20 28 11 15 1014.2 1012.9 0.0
30/10:00pm 12.2 7.3 6.7 69 2.7 SSE 22 32 12 17 1014.2 1012.9 0.0
30/09:30pm 12.7 8.2 7.0 68 2.8 SSE 20 26 11 14 1014.0 1012.6 0.0
30/09:00pm 13.5 8.9 6.6 63 3.4 SSE 20 28 11 15 1013.8 1012.4 0.0
30/08:30pm 14.5 9.8 6.1 57 4.1 SE 20 28 11 15 1013.7 1012.3 0.0
30/08:00pm 16.1 10.9 5.4 49 5.2 SSE 22 30 12 16 1013.4 1012.0 0.0
30/07:30pm 16.8 10.8 5.4 47 5.6 SSE 26 35 14 19 1013.3 1011.9 0.0
30/07:00pm 17.5 12.0 5.8 46 5.8 SSE 24 32 13 17 1013.3 1011.9 0.0
30/06:30pm 18.0 12.1 5.9 45 6.1 S 26 39 14 21 1013.3 1011.9 0.0
30/06:00pm 18.7 13.7 6.5 45 6.2 SSE 22 32 12 17 1013.3 1011.9 0.0
30/05:30pm 18.0 12.9 5.9 45 6.1 S 22 33 12 18 1013.6 1012.2 0.0
30/05:00pm 18.6 13.1 6.1 44 6.3 SSE 24 33 13 18 1013.8 1012.4 0.0
30/04:30pm 17.3 10.5 5.3 45 5.9 SSE 30 37 16 20 1014.1 1012.8 0.0
30/04:00pm 18.4 13.5 5.3 42 6.5 S 20 35 11 19 1014.1 1012.8 0.0
30/03:30pm 18.3 12.4 4.1 39 6.9 S 24 37 13 20 1014.4 1013.1 0.0
30/03:00pm 19.9 14.3 5.5 39 7.2 SSE 24 33 13 18 1014.8 1013.5 0.0
30/02:30pm 17.6 12.6 4.5 42 6.4 S 20 37 11 20 1015.2 1013.9 0.0
30/02:00pm 18.4 12.3 4.9 41 6.6 S 26 37 14 20 1015.5 1014.2 0.0
30/01:30pm 16.1 11.1 6.3 52 4.9 S 22 33 12 18 1016.0 1014.6 0.0
30/01:00pm 17.5 11.8 6.7 49 5.5 SSE 26 37 14 20 1016.3 1015.0 0.0
30/12:30pm 16.4 11.0 7.9 57 4.4 SE 26 33 14 18 1016.6 1015.3 0.0
30/12:00pm 16.9 10.9 7.0 52 5.0 SSE 28 41 15 22 1016.8 1015.5 0.0
30/11:30am 16.5 11.3 7.4 55 4.6 SSE 24 44 13 24 1016.9 1015.6 0.0
30/11:00am 16.3 10.6 8.3 59 4.1 SSE 28 39 15 21 1017.1 1015.8 0.0
30/10:30am 14.6 9.1 9.0 69 2.9 S 28 37 15 20 1017.1 1015.8 0.0
30/10:00am 13.2 9.1 10.0 81 1.7 S 22 30 12 16 1017.3 1016.0 0.0
30/09:30am 12.7 7.9 8.8 77 2.0 SSE 24 35 13 19 1017.3 1016.0 0.0
30/09:00am 12.5 8.0 9.9 84 1.4 S 24 30 13 16 1017.2 1015.9 0.0
30/08:30am 11.4 7.4 10.3 93 0.6 SSE 22 28 12 15 1017.1 1015.8 0.0
30/08:00am 10.2 6.5 10.0 99 0.1 S 20 26 11 14 1017.0 1015.7 0.0
30/07:30am 9.8 6.5 9.7 99 0.1 S 17 22 9 12 1016.8 1015.5 0.0
30/07:00am 9.8 6.0 9.7 99 0.1 S 20 30 11 16 1016.7 1015.4 0.0
30/06:39am 10.0 6.2 9.9 99 0.1 S 20 26 11 14 1016.6 1015.3 0.0
30/06:30am 10.0 6.2 9.9 99 0.1 S 20 26 11 14 1016.4 1015.1 0.0
30/06:28am 10.0 6.2 9.9 99 0.1 S 20 28 11 15 1016.4 1015.1 0.0
30/06:15am 10.1 6.3 9.9 99 0.1 SSE 20 28 11 15 1016.4 1015.1 0.0
30/06:00am 10.4 6.3 10.2 99 0.1 SSE 22 30 12 16 1016.3 1015.0 0.0
30/05:30am 10.6 7.0 10.4 99 0.1 SSE 20 32 11 17 1016.1 1014.8 0.0
30/05:06am 10.3 6.2 10.1 99 0.1 S 22 28 12 15 1016.1 1014.8 0.0
30/05:00am 10.3 6.6 10.1 99 0.1 S 20 26 11 14 1016.1 1014.8 0.0
30/04:30am 9.3 6.6 9.0 98 0.2 S 13 17 7 9 1016.3 1015.0 0.0
30/04:00am 8.9 6.1 8.6 98 0.1 S 13 15 7 8 1016.5 1015.2 0.0
30/03:30am 9.4 6.6 8.6 95 0.4 S 13 17 7 9 1016.7 1015.4 0.0
30/03:00am 10.0 7.1 8.3 89 0.8 SSE 13 17 7 9 1016.9 1015.6 0.0
30/02:30am 10.7 7.3 9.0 89 0.9 SE 17 24 9 13 1017.0 1015.7 0.0
30/02:00am 10.5 7.9 9.3 92 0.6 S 13 17 7 9 1017.3 1016.0 0.0
30/01:30am 11.2 7.4 9.1 87 1.1 SE 19 24 10 13 1017.6 1016.3 0.0
30/01:00am 11.5 6.8 9.4 87 1.1 SE 24 33 13 18 1017.7 1016.4 0.0
30/12:30am 11.5 7.2 9.4 87 1.1 SE 22 30 12 16 1017.9 1016.6 0.0
30/12:00am 11.5 7.3 9.6 88 1.0 SE 22 28 12 15 1018.0 1016.8 0.0
 
Date/Time
EDT
Temp
°C
App
Temp
°C
Dew
Point
Rel
Hum
%
Delta-T
°C
Wind Press
QNH
hPa
Press
MSL
hPa
Rain
since 9 am
mm
Dir
 
Spd
km/h
Gust
km/h
Spd
kts
Gust
kts
29/11:30pm 11.5 6.8 9.4 87 1.1 SSE 24 33 13 18 1018.2 1016.9 0.0
29/11:00pm 11.5 6.8 9.2 86 1.2 SE 24 37 13 20 1018.4 1017.1 0.0
29/10:30pm 11.6 6.7 8.6 82 1.5 SSE 24 33 13 18 1018.5 1017.2 0.0
29/10:00pm 11.9 6.6 8.4 79 1.8 SSE 26 35 14 19 1018.6 1017.3 0.0
29/09:30pm 12.2 6.4 8.1 76 2.1 SSE 28 37 15 20 1018.6 1017.3 0.0
29/09:00pm 12.6 6.3 7.5 71 2.5 SSE 30 39 16 21 1018.6 1017.3 0.0
29/08:30pm 13.5 6.8 7.3 66 3.1 SE 32 46 17 25 1018.5 1017.2 0.0
29/08:22pm 13.9 7.9 7.0 63 3.4 SSE 28 46 15 25 1018.4 1017.1 0.0
29/08:00pm 14.8 8.4 7.1 60 3.9 SE 30 44 16 24 1018.3 1017.0 0.0
29/07:39pm 15.2 9.1 6.5 56 4.3 SSE 28 46 15 25 1018.2 1016.9 0.0
29/07:30pm 14.5 7.6 6.6 59 3.9 SSE 32 39 17 21 1018.3 1017.0 0.0
29/07:00pm 15.4 8.8 5.9 53 4.7 SSE 30 43 16 23 1017.9 1016.6 0.0
29/06:30pm 16.0 8.7 5.6 50 5.1 SE 33 44 18 24 1017.7 1016.4 0.0
29/06:00pm 16.5 8.7 4.9 46 5.6 SSE 35 48 19 26 1017.7 1016.4 0.0
29/05:30pm 18.4 10.6 4.9 41 6.6 SE 35 46 19 25 1017.8 1016.5 0.0
29/05:00pm 18.3 10.6 5.2 42 6.5 SE 35 46 19 25 1017.8 1016.5 0.0
29/04:30pm 18.7 10.8 4.1 38 7.1 SE 35 46 19 25 1018.0 1016.8 0.0
29/04:00pm 18.8 10.9 4.6 39 7.0 SE 35 46 19 25 1018.6 1017.3 0.0
29/03:43pm 19.7 12.3 5.0 38 7.3 SE 33 44 18 24 1018.7 1017.4 0.0
29/03:39pm 19.2 11.8 4.9 39 7.1 SE 33 44 18 24 1018.7 1017.4 0.0
29/03:30pm 19.2 11.9 4.6 38 7.2 SSE 32 46 17 25 1018.9 1017.6 0.0
29/03:00pm 19.8 12.5 5.5 39 7.2 SE 33 44 18 24 1018.9 1017.6 0.0
29/02:30pm 19.2 11.8 4.2 37 7.3 SE 32 43 17 23 1019.1 1017.8 0.0
29/02:00pm 18.8 10.8 3.8 37 7.2 SE 35 50 19 27 1019.3 1018.0 0.0
29/01:30pm 18.7 11.1 4.1 38 7.1 SE 33 48 18 26 1019.4 1018.1 0.0
29/01:00pm 18.2 10.7 4.7 41 6.6 SE 33 46 18 25 1019.8 1018.5 0.0
29/12:30pm 17.4 9.6 5.0 44 6.1 SE 35 46 19 25 1020.2 1019.0 0.0
29/12:00pm 18.1 9.6 5.0 42 6.4 SE 39 52 21 28 1020.0 1018.7 0.0
29/11:30am 17.2 8.7 5.2 45 5.9 ESE 39 56 21 30 1020.3 1019.1 0.0
29/11:06am 16.1 9.0 5.4 49 5.2 SE 32 50 17 27 1020.4 1019.2 0.0
29/11:00am 16.5 9.0 6.1 50 5.2 SE 35 50 19 27 1020.4 1019.2 0.0
29/10:39am 16.4 9.0 5.1 47 5.5 SE 33 52 18 28 1020.4 1019.2 0.0
29/10:30am 15.4 8.7 7.2 58 4.1 SE 32 43 17 23 1020.4 1019.2 0.0
29/10:00am 15.5 7.5 7.5 59 4.1 SE 39 50 21 27 1020.6 1019.3 0.0
29/09:30am 14.3 7.4 7.4 63 3.5 SE 33 46 18 25 1020.6 1019.3 0.0
29/09:00am 13.4 5.3 7.2 66 3.1 SE 39 52 21 28 1020.4 1019.2 0.0
29/08:30am 12.8 6.0 7.9 72 2.5 SE 33 46 18 25 1019.9 1018.6 0.0
29/08:00am 11.9 5.9 8.6 80 1.7 SE 30 41 16 22 1019.7 1018.4 0.0
29/07:30am 11.0 5.4 8.8 86 1.1 SE 28 37 15 20 1019.6 1018.3 0.0
29/07:00am 10.1 5.2 8.5 90 0.8 SE 24 33 13 18 1019.5 1018.2 0.0
29/06:30am 9.9 5.3 8.3 90 0.8 SE 22 28 12 15 1019.4 1018.1 0.0

Other Formats:

Comma delimited format used in spreadsheet applications
http://www.bom.gov.au/fwo/IDV60801/IDV60801.94852.axf

JavaScript Object Notation format (JSON) in row-major order
http://www.bom.gov.au/fwo/IDV60801/IDV60801.94852.json